Time;durP1;ratioP1;P1;durP2;ratioP2;P2;SDS_P1;SDS_P2;PMS_P1;PMS_P2;Temp;Humidity;BMP_temperature;BMP_pressure;BME280_temperature;BME280_humidity;BME280_pressure;Samples;Min_cycle;Max_cycle;Signal;HPM_P1;HPM_P2
2021/05/10 19:15:51;;;;;;;4.53;1.40;;;;;;;18.25;50.29;100756.03;5132837;27;20915;-39
2021/05/10 19:18:17;;;;;;;;;;;;;;;18.50;49.53;100762.41;5132182;27;20031;-38
2021/05/10 19:20:43;;;;;;;3.17;1.10;;;;;;;18.32;51.27;100760.34;5133768;27;19915;-38
2021/05/10 19:23:08;;;;;;;;;;;;;;;18.49;49.62;100763.50;5143041;27;20103;-39
2021/05/10 19:25:33;;;;;;;3.03;1.23;;;;;;;18.36;51.19;100761.44;5133729;27;19908;-39
2021/05/10 19:27:59;;;;;;;;;;;;;;;18.48;49.50;100757.19;5133870;27;20273;-39
2021/05/10 19:30:25;;;;;;;2.65;1.00;;;;;;;18.24;52.15;100768.03;5132195;27;19908;-39
2021/05/10 19:32:53;;;;;;;2.35;0.90;;;;;;;18.18;52.82;100771.94;5131224;27;20037;-39
2021/05/10 19:35:18;;;;;;;4.50;1.05;;;;;;;18.07;52.61;100783.22;5131451;27;20027;-40
2021/05/10 19:37:44;;;;;;;5.57;1.27;;;;;;;18.03;53.41;100782.97;5131249;27;20031;-39
2021/05/10 19:40:10;;;;;;;4.22;1.23;;;;;;;17.98;53.29;100774.78;5131928;27;20102;-39
2021/05/10 19:42:35;;;;;;;;;;;;;;;18.10;51.67;100788.13;5131001;27;20012;-39
2021/05/10 19:45:00;;;;;;;5.00;1.27;;;;;;;17.85;53.79;100776.22;5137310;27;20378;-39
2021/05/10 19:50:15;;;;;;;3.40;1.10;;;;;;;17.73;55.13;100794.88;5144248;27;19912;-39
2021/05/10 20:05:55;;;;;;;5.13;1.38;;;;;;;17.66;54.94;100797.88;5144572;27;20117;-38
2021/05/10 20:08:21;;;;;;;;;;;;;;;17.82;53.28;100797.88;5142419;27;20509;-40
2021/05/10 20:10:47;;;;;;;4.93;1.20;;;;;;;17.61;55.38;100805.28;5150551;27;20404;-40
2021/05/10 20:13:13;;;;;;;3.45;1.27;;;;;;;17.53;55.37;100811.34;5144153;27;20096;-39
2021/05/10 20:15:38;;;;;;;;;;;;;;;17.70;53.43;100801.69;5143219;27;20043;-39
2021/05/10 20:18:04;;;;;;;3.80;1.20;;;;;;;17.45;55.58;100807.25;5150601;27;20276;-39
2021/05/10 20:20:29;;;;;;;;;;;;;;;17.61;53.88;100811.56;5151871;27;20019;-39
2021/05/10 20:22:55;;;;;;;2.55;1.00;;;;;;;17.47;57.11;100794.09;5151637;27;19911;-39
2021/05/10 20:25:20;;;;;;;;;;;;;;;17.60;54.50;100796.25;5149206;27;20031;-39
2021/05/10 20:27:45;;;;;;;5.27;1.23;;;;;;;17.49;56.44;100800.13;5137258;27;19918;-39
2021/05/10 20:30:11;;;;;;;5.88;1.27;;;;;;;17.51;56.18;100795.19;5137514;27;20287;-39
2021/05/10 20:32:36;;;;;;;;;;;;;;;17.61;54.25;100794.34;5137465;27;20474;-39
2021/05/10 20:35:02;;;;;;;3.10;1.00;;;;;;;17.44;56.05;100798.22;5137076;27;19967;-39
2021/05/10 20:37:27;;;;;;;;;;;;;;;17.55;54.36;100796.28;5137452;27;20050;-39
2021/05/10 20:39:52;;;;;;;3.45;1.27;;;;;;;17.27;57.49;100796.91;5137619;27;19914;-39
2021/05/10 20:42:17;;;;;;;;;;;;;;;17.45;55.15;100799.03;5137118;27;20091;-39
2021/05/10 20:44:43;;;;;;;4.60;1.55;;;;;;;17.29;56.57;100792.81;5137519;27;19907;-39
2021/05/10 20:47:09;;;;;;;;;;;;;;;17.38;54.67;100799.34;5137226;27;20087;-39
2021/05/10 20:49:34;;;;;;;4.95;2.20;;;;;;;17.15;56.41;100798.00;5137661;27;19907;-39
2021/05/10 20:52:00;;;;;;;5.45;2.00;;;;;;;17.02;58.04;100790.38;5137053;27;20106;-39
2021/05/10 20:54:25;;;;;;;4.40;1.85;;;;;;;16.97;58.99;100793.94;5137270;27;20023;-39
2021/05/10 20:56:50;;;;;;;4.50;1.70;;;;;;;16.93;59.05;100798.34;5136487;27;20023;-39
2021/05/10 20:59:16;;;;;;;2.55;1.63;;;;;;;16.91;58.96;100805.97;5136535;27;20088;-39
2021/05/10 21:01:41;;;;;;;;;;;;;;;17.09;56.31;100801.84;5136727;27;20023;-39
2021/05/10 21:04:06;;;;;;;3.80;1.63;;;;;;;16.89;58.44;100801.88;5136634;27;19989;-39
2021/05/10 21:06:33;;;;;;;;;;;;;;;17.05;56.32;100803.50;5137533;27;20102;-39
2021/05/10 21:08:58;;;;;;;4.97;1.70;;;;;;;16.90;59.03;100798.88;5137378;27;19907;-39
2021/05/10 21:11:24;;;;;;;4.13;1.45;;;;;;;16.80;60.24;100808.97;5136640;27;20378;-39
2021/05/10 21:13:49;;;;;;;3.67;1.58;;;;;;;16.85;59.48;100806.25;5135918;27;20031;-39
2021/05/10 21:16:14;;;;;;;;;;;;;;;16.98;57.21;100811.13;5136867;27;20038;-39
2021/05/10 21:18:41;;;;;;;3.30;1.30;;;;;;;16.73;59.44;100809.22;5135918;27;19911;-39
2021/05/10 21:21:07;;;;;;;3.85;1.40;;;;;;;16.65;58.55;100812.50;5136233;27;20052;-38
2021/05/10 21:23:32;;;;;;;;;;;;;;;16.83;57.14;100811.97;5136557;27;20121;-38
2021/05/10 21:25:57;;;;;;;6.57;1.60;;;;;;;16.59;60.07;100811.69;5136944;27;19911;-38
2021/05/10 21:28:23;;;;;;;;;;;;;;;16.78;57.63;100816.59;5136222;27;20054;-39
2021/05/10 21:30:48;;;;;;;5.78;1.90;;;;;;;16.52;60.76;100807.56;5136678;27;19911;-38
2021/05/10 21:33:15;;;;;;;5.78;2.00;;;;;;;16.52;60.92;100818.47;5136198;27;20023;-39
2021/05/10 21:35:45;;;;;;;3.60;1.80;;;;;;;16.52;60.98;100819.28;5135941;27;20030;-38
2021/05/10 21:38:11;;;;;;;6.03;2.58;;;;;;;16.47;61.57;100813.84;5134492;27;20026;-38
2021/05/10 21:40:37;;;;;;;3.20;1.77;;;;;;;16.42;60.88;100811.09;5136400;27;20023;-38
2021/05/10 21:43:03;;;;;;;;;;;;;;;16.65;59.15;100815.22;5135923;27;20394;-38
2021/05/10 21:45:32;;;;;;;4.88;1.95;;;;;;;16.45;60.67;100814.13;5135535;27;19953;-38
2021/05/10 21:50:53;;;;;;;3.72;1.85;;;;;;;16.39;60.68;100825.28;5113239;28;20134;-43
2021/05/10 21:53:18;;;;;;;;;;;;;;;16.55;58.93;100832.41;5113576;28;20035;-38
2021/05/10 21:55:44;;;;;;;3.40;1.63;;;;;;;16.37;59.45;100827.47;5112721;28;19977;-38
2021/05/10 21:58:09;;;;;;;;;;;;;;;16.54;58.67;100833.47;5096486;28;20466;-38
2021/05/10 22:00:42;;;;;;;4.43;1.52;;;;;;;16.49;57.32;100825.28;5112556;28;19907;-38
2021/05/10 22:03:11;;;;;;;5.18;1.52;;;;;;;16.31;56.71;100823.09;5112447;28;20032;-38
2021/05/10 22:05:37;;;;;;;5.03;1.60;;;;;;;16.45;55.79;100821.47;5112347;28;20063;-37
2021/05/10 22:08:03;;;;;;;2.65;1.25;;;;;;;16.37;56.57;100822.00;5112405;28;20385;-38
2021/05/10 22:10:29;;;;;;;;;;;;;;;16.52;56.53;100810.28;5112968;28;20107;-38
2021/05/10 22:12:54;;;;;;;6.40;1.50;;;;;;;16.45;54.61;100827.75;5112277;28;19907;-37
2021/05/10 22:15:20;;;;;;;4.87;1.27;;;;;;;16.38;55.11;100823.63;5112095;28;20048;-38
2021/05/10 22:17:46;;;;;;;4.93;1.63;;;;;;;16.39;54.28;100833.47;5112075;28;20266;-38
2021/05/10 22:20:17;;;;;;;2.85;1.02;;;;;;;16.29;54.64;100822.53;5112777;28;20100;-38
2021/05/10 22:22:49;;;;;;;3.95;1.17;;;;;;;16.28;54.71;100815.44;5112270;28;20406;-38
2021/05/10 22:25:17;;;;;;;6.03;1.55;;;;;;;16.25;55.59;100815.97;5111969;28;20078;-38
2021/05/10 22:27:56;;;;;;;5.85;1.40;;;;;;;16.19;55.48;100818.69;5128248;27;20043;-38
2021/05/10 22:30:21;;;;;;;4.93;1.33;;;;;;;16.16;55.86;100819.22;5133966;27;20031;-38
2021/05/10 22:32:47;;;;;;;;;;;;;;;16.32;55.24;100825.53;5135250;27;20023;-38
2021/05/10 22:35:13;;;;;;;3.03;1.20;;;;;;;16.13;54.89;100822.47;5134700;27;20362;-38
2021/05/10 22:37:46;;;;;;;6.30;1.55;;;;;;;16.06;55.16;100816.47;5134691;27;20038;-38
2021/05/10 22:40:16;;;;;;;2.83;1.30;;;;;;;16.12;55.03;100826.31;5134719;27;20034;-38
2021/05/10 22:42:44;;;;;;;4.18;1.20;;;;;;;16.18;54.60;100827.97;5134368;27;20059;-38
2021/05/10 22:45:24;;;;;;;6.45;1.45;;;;;;;16.21;54.39;100830.16;5135145;27;20096;-38
2021/05/10 23:16:52;;;;;;;;;;;;;;;15.96;55.30;100857.34;5134656;28;20119;-38
2021/05/10 23:19:18;;;;;;;3.13;1.10;;;;;;;15.78;57.82;100857.81;5134709;28;20318;-38
2021/05/10 23:21:43;;;;;;;5.40;1.77;;;;;;;15.71;56.83;100863.47;5134476;28;20300;-38
2021/05/10 23:24:08;;;;;;;;;;;;;;;15.90;56.02;100863.84;5135116;28;20034;-38
2021/05/10 23:26:34;;;;;;;4.10;1.17;;;;;;;15.79;56.81;100860.25;5134280;28;19992;-38
2021/05/10 23:28:59;;;;;;;5.43;1.50;;;;;;;15.75;57.45;100863.78;5134471;28;20708;-37
2021/05/10 23:31:24;;;;;;;3.77;1.40;;;;;;;15.63;58.10;100856.63;5134086;28;20023;-37
2021/05/10 23:33:50;;;;;;;3.47;1.17;;;;;;;15.65;57.90;100854.47;5134534;27;20276;-38
2021/05/10 23:36:15;;;;;;;4.38;1.33;;;;;;;15.67;58.09;100849.59;5133754;28;20062;-38
2021/05/10 23:38:40;;;;;;;3.72;1.05;;;;;;;15.55;59.07;100848.94;5134009;28;20038;-38
2021/05/10 23:41:06;;;;;;;7.15;1.65;;;;;;;15.49;58.22;100849.16;5134594;28;20034;-38
2021/05/10 23:43:31;;;;;;;4.07;1.10;;;;;;;15.50;58.57;100851.63;5134210;28;20031;-38
2021/05/10 23:45:56;;;;;;;5.30;1.30;;;;;;;15.51;58.83;100842.34;5133720;28;20050;-38
2021/05/10 23:48:22;;;;;;;3.70;1.43;;;;;;;15.43;59.65;100856.50;5134157;28;20277;-38
2021/05/10 23:50:49;;;;;;;3.30;1.38;;;;;;;15.46;59.27;100847.78;5134261;28;20076;-38
2021/05/10 23:53:15;;;;;;;3.40;1.13;;;;;;;15.34;59.75;100853.44;5133743;28;20027;-38
2021/05/10 23:55:41;;;;;;;3.33;1.40;;;;;;;15.34;60.58;100852.63;5133868;28;20527;-38
2021/05/10 23:58:09;;;;;;;3.35;1.20;;;;;;;15.24;61.85;100863.44;5133806;28;20024;-38
